Time;durP1;ratioP1;P1;durP2;ratioP2;P2;SDS_P1;SDS_P2;PMS_P1;PMS_P2;Temp;Humidity;BMP_temperature;BMP_pressure;BME280_temperature;BME280_humidity;BME280_pressure;Samples;Min_cycle;Max_cycle;Signal;HPM_P1;HPM_P2
2023/07/04 00:04:29;;;;;;;10.10;6.60;;;;;;;14.17;68.62;99455.60;219164;1254;141981;-68
2023/07/04 00:09:34;;;;;;;9.40;6.70;;;;;;;14.23;68.94;99465.49;218122;1254;142495;-68
2023/07/04 00:14:39;;;;;;;12.90;6.60;;;;;;;14.29;69.19;99473.66;218947;1254;139964;-68
2023/07/04 00:19:42;;;;;;;11.40;9.10;;;;;;;14.34;69.29;99475.66;218323;1254;141036;-67
2023/07/04 00:24:47;;;;;;;12.80;6.90;;;;;;;14.40;69.55;99481.46;218902;1254;139924;-68
2023/07/04 00:29:52;;;;;;;15.10;8.10;;;;;;;14.45;69.34;99472.36;218758;1254;139863;-68
2023/07/04 00:34:56;;;;;;;8.80;7.10;;;;;;;14.47;69.39;99469.42;218156;1254;140166;-68
2023/07/04 00:40:01;;;;;;;11.10;7.30;;;;;;;14.43;69.57;99469.56;219863;1254;140277;-68
2023/07/04 00:45:19;;;;;;;10.80;6.60;;;;;;;14.43;69.67;99469.45;218810;1253;140063;-67
2023/07/04 00:50:27;;;;;;;11.50;8.00;;;;;;;14.44;69.93;99474.61;219753;1253;140167;-68
2023/07/04 00:55:33;;;;;;;9.50;7.40;;;;;;;14.45;69.94;99479.07;219439;1253;140591;-68
2023/07/04 01:00:38;;;;;;;15.40;7.90;;;;;;;14.50;70.11;99476.39;218175;1254;140138;-67
2023/07/04 01:05:52;;;;;;;10.30;6.30;;;;;;;14.52;70.08;99483.59;220974;1253;142198;-68
2023/07/04 01:11:01;;;;;;;11.00;7.90;;;;;;;14.47;70.01;99484.16;220269;1254;140030;-67
2023/07/04 01:16:12;;;;;;;15.20;8.20;;;;;;;14.42;70.00;99479.91;220483;1253;142603;-67
2023/07/04 01:21:20;;;;;;;9.50;5.90;;;;;;;14.45;70.21;99487.91;221041;1253;140875;-69
2023/07/04 01:26:31;;;;;;;15.70;7.50;;;;;;;14.44;70.31;99493.86;220690;1253;139710;-69
2023/07/04 01:31:37;;;;;;;11.60;9.00;;;;;;;14.46;70.55;99497.20;220370;1253;140796;-67
2023/07/04 01:36:41;;;;;;;13.30;8.10;;;;;;;14.52;70.56;99491.42;220765;1253;140139;-68
2023/07/04 01:41:47;;;;;;;13.90;7.60;;;;;;;14.52;70.55;99489.23;218405;1254;140679;-67
2023/07/04 01:46:51;;;;;;;13.90;8.40;;;;;;;14.54;70.73;99494.80;218390;1254;140040;-68
2023/07/04 01:51:56;;;;;;;14.10;8.00;;;;;;;14.56;71.02;99487.08;218771;1254;141051;-67
2023/07/04 01:57:00;;;;;;;13.90;8.60;;;;;;;14.55;70.93;99483.27;219903;1253;140584;-67
2023/07/04 02:02:04;;;;;;;14.90;7.80;;;;;;;14.56;71.05;99480.37;218609;1257;140603;-67
2023/07/04 02:07:11;;;;;;;13.90;8.10;;;;;;;14.56;71.00;99482.26;219364;1253;140770;-67
2023/07/04 02:12:18;;;;;;;19.00;8.80;;;;;;;14.54;71.24;99474.80;219127;1253;140280;-66
2023/07/04 02:17:22;;;;;;;15.80;8.20;;;;;;;14.53;71.34;99474.57;218673;1254;140085;-67
2023/07/04 02:22:26;;;;;;;13.00;8.50;;;;;;;14.48;71.07;99474.25;219331;1253;141348;-67
2023/07/04 02:27:31;;;;;;;10.80;7.60;;;;;;;14.35;70.68;99476.17;219046;1253;140169;-67
2023/07/04 02:32:36;;;;;;;15.70;8.20;;;;;;;14.20;70.89;99482.10;218245;1253;140123;-67
2023/07/04 02:37:40;;;;;;;10.10;7.60;;;;;;;14.06;71.02;99485.86;218668;1256;139941;-67
2023/07/04 02:42:44;;;;;;;10.30;8.20;;;;;;;13.93;71.14;99484.05;218362;1254;139754;-69
2023/07/04 02:47:48;;;;;;;11.50;8.50;;;;;;;13.86;71.27;99485.58;219435;1253;140746;-67
2023/07/04 02:52:53;;;;;;;13.30;7.70;;;;;;;13.80;71.51;99491.50;219250;1254;140830;-67
2023/07/04 02:57:57;;;;;;;9.70;7.10;;;;;;;13.74;71.47;99492.33;219123;1253;140503;-67
2023/07/04 03:03:02;;;;;;;10.20;7.30;;;;;;;13.67;71.55;99486.31;219163;1254;141266;-66
2023/07/04 03:08:08;;;;;;;13.40;6.90;;;;;;;13.66;71.78;99489.36;218781;1253;142088;-66
2023/07/04 03:13:13;;;;;;;9.60;7.20;;;;;;;13.63;71.87;99485.55;220115;1253;152950;-67
2023/07/04 03:18:18;;;;;;;9.60;7.70;;;;;;;13.65;72.18;99485.17;220138;1253;140630;-67
2023/07/04 03:23:22;;;;;;;11.90;7.30;;;;;;;13.71;72.39;99484.73;220991;1253;140515;-67
2023/07/04 03:28:26;;;;;;;12.70;6.20;;;;;;;13.85;72.62;99485.09;220412;1253;140861;-67
2023/07/04 03:33:31;;;;;;;9.70;6.90;;;;;;;13.95;72.44;99484.44;219567;1253;140694;-66
2023/07/04 03:38:35;;;;;;;12.50;7.30;;;;;;;14.13;72.77;99482.99;218988;1253;140657;-67
2023/07/04 03:43:40;;;;;;;15.00;9.00;;;;;;;14.33;72.66;99484.17;219286;1253;139944;-66
2023/07/04 03:48:44;;;;;;;18.90;8.60;;;;;;;14.49;72.24;99482.02;219650;1253;140847;-66
2023/07/04 03:53:48;;;;;;;26.90;9.40;;;;;;;14.69;72.21;99484.09;219222;1254;142779;-65
2023/07/04 03:58:53;;;;;;;15.60;7.00;;;;;;;14.92;71.76;99482.54;219389;1253;141756;-67
2023/07/04 04:03:58;;;;;;;15.20;8.00;;;;;;;15.13;71.55;99482.13;218747;1254;140258;-69
2023/07/04 04:09:02;;;;;;;13.90;9.50;;;;;;;15.34;71.25;99488.70;218279;1254;141231;-69
2023/07/04 04:14:08;;;;;;;12.70;8.40;;;;;;;15.50;71.07;99487.38;219066;1253;140772;-64
2023/07/04 04:19:12;;;;;;;18.30;9.80;;;;;;;15.69;70.94;99487.14;218605;1254;141303;-70
2023/07/04 04:24:17;;;;;;;12.10;8.00;;;;;;;15.96;70.65;99493.59;218867;1254;141323;-66
2023/07/04 04:29:22;;;;;;;20.40;7.80;;;;;;;16.28;70.47;99501.45;217955;1254;152418;-66
2023/07/04 04:34:28;;;;;;;13.30;7.90;;;;;;;16.67;70.21;99505.78;219443;1253;140600;-68
2023/07/04 04:39:32;;;;;;;13.20;8.20;;;;;;;17.10;69.21;99507.65;218307;1254;140243;-68
2023/07/04 04:44:39;;;;;;;17.60;8.00;;;;;;;17.53;67.98;99510.96;218430;1253;141485;-67
2023/07/04 04:49:44;;;;;;;12.60;9.10;;;;;;;18.18;66.90;99518.25;219676;1253;139953;-67
2023/07/04 04:54:48;;;;;;;13.80;8.90;;;;;;;19.42;65.01;99521.92;220005;1254;141736;-64
2023/07/04 04:59:56;;;;;;;12.20;7.90;;;;;;;19.96;63.73;99532.43;219742;1253;141355;-65
2023/07/04 05:05:02;;;;;;;12.10;7.70;;;;;;;20.12;62.99;99528.59;220152;1253;140202;-69
2023/07/04 05:10:08;;;;;;;11.00;7.90;;;;;;;20.86;61.39;99530.85;218169;1254;140988;-68
2023/07/04 05:15:14;;;;;;;14.40;8.10;;;;;;;22.97;58.16;99527.73;220436;1253;139868;-70
2023/07/04 05:20:23;;;;;;;15.70;9.00;;;;;;;26.39;53.98;99533.06;220726;1253;139295;-71
2023/07/04 05:25:28;;;;;;;12.00;7.00;;;;;;;29.31;50.11;99533.46;220712;1254;139298;-70
2023/07/04 05:30:34;;;;;;;10.70;6.50;;;;;;;31.56;46.29;99537.99;218784;1254;139584;-69
2023/07/04 05:35:38;;;;;;;10.80;6.20;;;;;;;33.21;43.09;99544.42;220154;1253;138955;-71
2023/07/04 05:40:43;;;;;;;9.10;5.20;;;;;;;34.47;39.48;99549.07;219882;1253;139278;-71
2023/07/04 05:45:53;;;;;;;6.90;4.60;;;;;;;35.36;37.64;99541.54;219385;1253;138798;-71
2023/07/04 05:51:03;;;;;;;6.50;3.80;;;;;;;37.07;35.52;99545.08;218653;1254;140745;-72
2023/07/04 05:56:11;;;;;;;6.20;3.10;;;;;;;37.96;32.82;99546.66;218457;1254;140045;-71
2023/07/04 06:01:19;;;;;;;5.60;3.10;;;;;;;38.54;30.41;99540.83;218644;1253;138972;-72
2023/07/04 06:06:28;;;;;;;4.50;3.60;;;;;;;39.50;29.50;99541.05;218011;1253;140026;-73
2023/07/04 06:11:36;;;;;;;4.80;2.30;;;;;;;40.15;27.88;99537.59;218529;1254;140420;-74
2023/07/04 06:16:41;;;;;;;3.30;2.40;;;;;;;40.11;26.59;99537.05;218033;1253;139201;-73
2023/07/04 06:21:46;;;;;;;5.80;3.00;;;;;;;39.93;25.51;99537.23;217900;1255;139047;-69
2023/07/04 06:26:51;;;;;;;8.10;2.60;;;;;;;40.10;25.41;99537.95;218735;1253;140185;-70
2023/07/04 06:31:58;;;;;;;3.10;2.00;;;;;;;40.76;24.99;99540.70;219609;1253;139751;-70
2023/07/04 06:37:07;;;;;;;7.30;2.90;;;;;;;40.61;23.79;99547.09;218577;1254;162969;-70
2023/07/04 06:42:12;;;;;;;6.00;3.60;;;;;;;40.33;23.23;99541.82;220044;1254;139275;-71
2023/07/04 06:47:17;;;;;;;8.80;2.90;;;;;;;39.91;23.23;99544.13;217904;1254;138762;-71
2023/07/04 06:52:22;;;;;;;4.90;2.00;;;;;;;40.09;23.15;99539.98;218737;1254;138861;-71
2023/07/04 06:57:27;;;;;;;3.00;2.50;;;;;;;40.61;22.81;99539.14;220045;1256;140442;-71
2023/07/04 07:02:32;;;;;;;4.20;2.30;;;;;;;40.66;21.75;99538.40;219623;1254;139942;-71
2023/07/04 07:07:39;;;;;;;2.10;1.90;;;;;;;40.53;21.62;99538.23;220864;1253;139827;-73
2023/07/04 07:12:43;;;;;;;3.70;1.60;;;;;;;40.42;21.47;99542.86;220223;1253;141341;-72
2023/07/04 07:17:49;;;;;;;2.10;1.70;;;;;;;40.23;21.36;99543.02;220714;1253;139189;-72
2023/07/04 07:22:56;;;;;;;1.60;1.40;;;;;;;40.52;21.19;99541.46;220405;1253;139034;-73
2023/07/04 07:28:02;;;;;;;5.10;1.50;;;;;;;40.53;21.24;99540.69;219214;1253;140091;-71
2023/07/04 07:33:07;;;;;;;3.30;2.30;;;;;;;39.50;20.93;99533.52;218329;1253;141392;-71
2023/07/04 07:38:12;;;;;;;2.10;1.80;;;;;;;37.73;21.36;99531.75;218673;1254;139616;-71
2023/07/04 07:43:17;;;;;;;2.20;1.70;;;;;;;37.07;22.62;99523.09;218072;1257;141793;-71
2023/07/04 07:48:21;;;;;;;4.00;2.30;;;;;;;36.17;22.74;99520.97;217909;1254;139531;-71
2023/07/04 07:53:26;;;;;;;5.30;1.60;;;;;;;35.42;23.61;99511.09;217987;1254;140092;-71
2023/07/04 07:58:32;;;;;;;7.10;2.50;;;;;;;34.81;23.59;99512.46;218004;1257;139308;-70
2023/07/04 08:03:36;;;;;;;12.60;3.10;;;;;;;33.96;24.39;99508.69;218230;1254;139858;-71
2023/07/04 08:08:41;;;;;;;5.20;2.90;;;;;;;33.39;24.67;99509.45;218082;1257;140559;-69
2023/07/04 08:13:46;;;;;;;4.20;2.50;;;;;;;32.69;25.25;99511.79;219434;1253;139860;-70
2023/07/04 08:18:50;;;;;;;5.70;2.80;;;;;;;32.64;26.21;99509.48;218090;1254;139177;-71
2023/07/04 08:23:54;;;;;;;;;;;;;;;32.77;26.17;99512.77;217845;1257;139320;-70
2023/07/04 08:28:59;;;;;;;4.20;3.10;;;;;;;32.53;26.34;99510.06;219117;1253;126171;-69
2023/07/04 08:34:05;;;;;;;7.50;2.70;;;;;;;32.47;26.73;99508.59;218910;1254;139847;-68
2023/07/04 08:39:10;;;;;;;8.70;3.20;;;;;;;32.29;26.60;99506.52;219930;1254;139896;-69
2023/07/04 08:44:19;;;;;;;;;;;;;;;31.70;26.81;99507.77;219212;1256;140399;-69
2023/07/04 08:49:38;;;;;;;8.40;2.80;;;;;;;31.06;27.71;99503.21;219013;1254;125718;-68
2023/07/04 08:54:44;;;;;;;7.40;3.60;;;;;;;31.09;27.97;99508.21;219879;1253;140728;-71
2023/07/04 08:59:56;;;;;;;3.50;2.20;;;;;;;31.02;28.12;99507.65;220784;1257;139955;-72
2023/07/04 09:05:47;;;;;;;5.50;3.70;;;;;;;30.91;28.04;99498.34;220999;1253;139176;-71
2023/07/04 09:10:59;;;;;;;9.30;3.30;;;;;;;30.64;28.54;99499.11;220255;1257;139385;-70
2023/07/04 09:16:47;;;;;;;5.10;3.20;;;;;;;30.31;28.73;99501.17;218785;1256;140555;-69
2023/07/04 09:21:52;;;;;;;6.60;3.70;;;;;;;30.08;29.10;99494.42;220611;1254;139989;-75
2023/07/04 09:26:58;;;;;;;6.00;3.30;;;;;;;30.15;29.24;99500.42;220691;1257;139518;-73
2023/07/04 09:32:08;;;;;;;12.20;4.20;;;;;;;30.24;29.71;99505.96;217918;1254;139345;-71
2023/07/04 09:37:17;;;;;;;6.80;4.00;;;;;;;30.16;29.21;99501.14;219331;1253;139688;-73
2023/07/04 09:42:45;;;;;;;11.30;4.50;;;;;;;30.03;29.50;99504.47;218906;1254;140015;-69
2023/07/04 09:47:52;;;;;;;7.00;3.70;;;;;;;29.98;29.64;99499.52;219504;1254;141244;-71
2023/07/04 09:53:10;;;;;;;8.90;4.40;;;;;;;30.17;29.91;99499.49;218621;1254;139576;-67
2023/07/04 09:58:23;;;;;;;7.00;3.30;;;;;;;30.24;30.10;99498.89;218837;1257;139692;-67
2023/07/04 10:03:30;;;;;;;8.60;4.10;;;;;;;30.01;29.91;99499.33;218366;1257;139934;-68
2023/07/04 10:08:53;;;;;;;6.00;4.50;;;;;;;30.11;30.21;99495.19;218563;1254;139396;-67
2023/07/04 10:14:09;;;;;;;10.50;4.50;;;;;;;30.13;30.14;99504.47;219003;1253;139482;-67
2023/07/04 10:19:20;;;;;;;10.40;4.90;;;;;;;30.14;30.18;99501.98;219167;1257;140044;-68
2023/07/04 10:24:25;;;;;;;6.20;4.80;;;;;;;30.21;29.72;99499.80;219952;1258;140798;-67
2023/07/04 10:30:06;;;;;;;6.00;4.60;;;;;;;30.14;29.94;99493.19;218821;1254;139968;-67
2023/07/04 10:35:18;;;;;;;7.00;4.80;;;;;;;30.19;29.94;99491.52;219894;1254;140138;-67
2023/07/04 10:40:24;;;;;;;12.60;6.20;;;;;;;30.27;29.98;99500.89;219238;1254;552395;-66
2023/07/04 10:45:39;;;;;;;8.00;5.60;;;;;;;30.36;29.82;99499.52;219959;1254;140568;-67
2023/07/04 10:51:34;;;;;;;8.80;5.10;;;;;;;30.37;29.73;99499.54;220305;1253;139740;-66
2023/07/04 10:56:44;;;;;;;9.00;5.90;;;;;;;29.86;29.53;99500.91;220376;1253;140060;-70
2023/07/04 11:01:55;;;;;;;8.30;5.30;;;;;;;29.53;29.88;99493.55;220408;1254;141626;-71
2023/07/04 11:07:18;;;;;;;9.00;5.50;;;;;;;29.50;30.08;99488.31;220006;1254;139134;-71
2023/07/04 11:12:29;;;;;;;6.60;5.20;;;;;;;29.67;30.27;99484.67;220352;1254;139176;-71
2023/07/04 11:17:36;;;;;;;8.60;4.80;;;;;;;29.64;30.20;99480.02;217977;1254;138864;-71
2023/07/04 11:22:50;;;;;;;7.50;5.50;;;;;;;29.85;30.53;99477.48;218823;1256;140378;-73
2023/07/04 11:28:19;;;;;;;9.70;5.80;;;;;;;30.05;30.13;99476.15;218509;1254;138894;-71
2023/07/04 11:34:00;;;;;;;7.50;5.50;;;;;;;29.88;30.16;99482.09;220329;1254;140184;-72
2023/07/04 11:39:28;;;;;;;7.30;5.40;;;;;;;29.82;30.28;99473.67;218931;1254;139253;-72
2023/07/04 11:44:56;;;;;;;6.30;4.40;;;;;;;29.68;29.99;99474.56;219251;1254;139190;-72
2023/07/04 11:50:09;;;;;;;6.20;4.70;;;;;;;29.47;30.54;99473.13;218269;1258;139500;-73
2023/07/04 11:55:17;;;;;;;6.30;5.60;;;;;;;29.56;30.49;99468.73;218309;1257;138998;-71
2023/07/04 12:00:45;;;;;;;8.20;6.10;;;;;;;29.57;30.40;99470.01;218896;1254;140101;-70
2023/07/04 12:05:57;;;;;;;12.30;5.50;;;;;;;29.64;30.50;99469.09;219473;1257;140040;-70
2023/07/04 12:11:19;;;;;;;10.10;6.40;;;;;;;29.51;30.28;99467.06;219273;1254;139277;-72
2023/07/04 12:16:24;;;;;;;6.80;5.60;;;;;;;29.19;30.29;99469.56;219958;1256;139684;-72
2023/07/04 12:21:29;;;;;;;;;;;;;;;29.20;30.78;99462.84;219356;1258;139584;-75
2023/07/04 12:26:35;;;;;;;11.70;6.90;;;;;;;29.23;30.56;99454.09;219912;1254;126641;-71
2023/07/04 12:31:42;;;;;;;17.30;8.20;;;;;;;29.45;30.57;99455.04;218581;1257;140248;-71
2023/07/04 12:36:47;;;;;;;13.10;8.10;;;;;;;29.59;30.22;99447.20;218963;1254;139595;-71
2023/07/04 12:42:09;;;;;;;10.50;7.40;;;;;;;29.62;30.23;99439.00;219689;1253;140318;-71
2023/07/04 12:47:19;;;;;;;12.50;7.70;;;;;;;29.61;30.53;99443.23;220276;1254;140081;-75
2023/07/04 12:52:33;;;;;;;13.50;10.80;;;;;;;29.74;29.95;99447.96;218993;1254;140463;-70
2023/07/04 12:57:40;;;;;;;13.10;9.80;;;;;;;29.81;29.63;99455.14;220481;1254;140147;-73
2023/07/04 13:02:47;;;;;;;13.10;10.20;;;;;;;29.72;29.29;99452.39;220299;1254;139661;-72
2023/07/04 13:07:57;;;;;;;16.80;10.20;;;;;;;29.74;29.54;99445.23;220560;1257;140013;-71
2023/07/04 13:13:03;;;;;;;10.80;8.70;;;;;;;29.94;29.48;99455.58;220129;1258;139466;-71
2023/07/04 13:18:10;;;;;;;13.30;10.90;;;;;;;29.90;29.34;99446.88;220312;1254;140027;-72
2023/07/04 13:23:25;;;;;;;14.80;11.60;;;;;;;29.96;29.53;99461.65;219362;1254;141510;-73
2023/07/04 13:28:37;;;;;;;16.10;12.80;;;;;;;30.08;29.04;99457.12;219235;1257;140702;-71
2023/07/04 13:33:50;;;;;;;20.60;12.50;;;;;;;29.80;34.76;99459.05;218855;1256;140914;-71
2023/07/04 13:38:56;;;;;;;11.00;8.10;;;;;;;25.98;44.01;99472.67;219417;1254;139332;-72
2023/07/04 13:44:05;;;;;;;18.60;12.60;;;;;;;23.57;48.04;99475.40;219054;1254;139696;-73
2023/07/04 13:49:14;;;;;;;20.60;14.50;;;;;;;22.70;52.15;99466.51;218366;1259;140409;-70
2023/07/04 13:54:21;;;;;;;18.00;14.50;;;;;;;22.55;53.94;99463.85;219351;1254;140224;-71
2023/07/04 13:59:26;;;;;;;14.90;11.70;;;;;;;22.54;54.95;99467.74;218226;1254;140602;-72
2023/07/04 14:04:32;;;;;;;28.70;12.90;;;;;;;22.95;55.70;99456.10;219256;1257;139898;-72
2023/07/04 14:09:40;;;;;;;24.90;13.20;;;;;;;23.43;56.42;99464.98;218504;1259;140307;-71
2023/07/04 14:14:46;;;;;;;22.20;13.10;;;;;;;23.97;57.06;99456.65;219146;1254;140149;-68
2023/07/04 14:19:54;;;;;;;18.40;14.10;;;;;;;24.62;56.81;99449.15;219914;1254;140843;-67
2023/07/04 14:25:03;;;;;;;19.20;14.70;;;;;;;25.39;55.72;99451.89;219019;1254;140248;-66
2023/07/04 14:30:11;;;;;;;18.50;13.10;;;;;;;25.99;52.31;99455.92;218569;1258;140778;-66
2023/07/04 14:35:15;;;;;;;21.20;14.70;;;;;;;26.41;48.20;99450.64;219953;1254;139712;-69
2023/07/04 14:40:22;;;;;;;20.70;14.50;;;;;;;26.58;45.08;99455.11;220135;1255;141958;-70
2023/07/04 14:45:31;;;;;;;24.80;16.30;;;;;;;26.55;43.47;99455.81;220162;1254;140617;-67
2023/07/04 14:50:35;;;;;;;21.10;15.90;;;;;;;26.87;42.40;99454.67;220185;1254;139619;-71
2023/07/04 14:55:40;;;;;;;21.30;15.00;;;;;;;27.10;40.96;99460.23;220793;1254;139590;-69
2023/07/04 15:00:44;;;;;;;26.20;17.50;;;;;;;27.06;39.86;99456.75;221018;1254;140591;-68
2023/07/04 15:05:48;;;;;;;22.70;16.80;;;;;;;27.09;39.28;99456.20;220327;1257;220405;-69
2023/07/04 15:10:54;;;;;;;21.80;18.20;;;;;;;27.11;38.73;99454.33;220097;1253;139126;-68
2023/07/04 15:16:03;;;;;;;25.80;17.70;;;;;;;27.06;38.24;99458.48;220137;1254;140554;-69
2023/07/04 15:21:09;;;;;;;20.70;16.50;;;;;;;27.09;37.83;99454.17;219182;1254;139341;-72
2023/07/04 15:26:17;;;;;;;21.90;17.70;;;;;;;27.25;37.55;99446.67;219989;1254;140577;-70
2023/07/04 15:31:36;;;;;;;32.80;19.90;;;;;;;27.21;37.06;99455.71;219023;1254;139983;-72
2023/07/04 15:36:44;;;;;;;26.60;16.30;;;;;;;27.13;36.65;99458.13;218596;1254;140472;-73
2023/07/04 15:41:52;;;;;;;21.60;16.80;;;;;;;27.00;36.36;99455.04;219218;1255;139184;-74
2023/07/04 15:47:03;;;;;;;23.40;17.70;;;;;;;26.97;35.81;99450.41;219134;1255;140206;-74
2023/07/04 15:52:09;;;;;;;28.50;19.50;;;;;;;27.05;35.87;99451.33;218487;1257;139598;-71
2023/07/04 15:57:14;;;;;;;23.20;16.60;;;;;;;27.06;35.33;99451.44;218248;1258;142061;-68
2023/07/04 16:02:19;;;;;;;28.20;19.70;;;;;;;26.98;35.11;99452.45;218539;1257;139967;-66
2023/07/04 16:07:24;;;;;;;24.30;19.20;;;;;;;26.94;34.79;99451.70;219052;1260;140140;-68
2023/07/04 16:12:29;;;;;;;;;;;;;;;26.85;34.86;99451.55;218889;1254;139357;-68
2023/07/04 16:17:35;;;;;;;20.10;15.90;;;;;;;26.71;34.97;99455.53;219639;1254;126528;-66
2023/07/04 16:22:44;;;;;;;23.30;17.90;;;;;;;26.59;34.91;99459.66;218324;1258;139443;-65
2023/07/04 16:27:54;;;;;;;25.00;17.90;;;;;;;26.50;35.14;99458.49;218810;1257;139391;-67
2023/07/04 16:33:01;;;;;;;27.70;17.70;;;;;;;26.43;35.28;99462.02;218375;1258;139334;-69
2023/07/04 16:38:08;;;;;;;21.00;17.30;;;;;;;26.36;34.95;99465.89;218224;1260;139650;-70
2023/07/04 16:43:15;;;;;;;20.90;16.40;;;;;;;26.29;35.10;99469.18;218217;1256;139693;-67
2023/07/04 16:48:25;;;;;;;21.40;18.90;;;;;;;26.21;35.27;99467.77;220311;1257;139740;-67
2023/07/04 16:53:35;;;;;;;24.10;18.20;;;;;;;26.08;34.88;99473.85;219619;1257;141125;-67
2023/07/04 16:58:41;;;;;;;27.40;19.40;;;;;;;26.02;34.63;99477.40;219837;1257;139187;-67
2023/07/04 17:03:53;;;;;;;29.00;18.80;;;;;;;25.93;34.38;99476.52;219785;1256;141715;-69
2023/07/04 17:08:59;;;;;;;;;;;;;;;25.79;34.16;99478.82;219252;1257;141381;-68
2023/07/04 17:14:06;;;;;;;20.50;17.60;;;;;;;25.69;34.10;99484.01;218779;1260;126012;-68
2023/07/04 17:19:12;;;;;;;21.50;17.10;;;;;;;25.59;33.92;99482.80;218923;1258;139392;-69
2023/07/04 17:24:16;;;;;;;21.70;18.00;;;;;;;25.51;34.22;99482.63;218103;1257;140043;-70
2023/07/04 17:29:21;;;;;;;26.20;16.60;;;;;;;25.39;34.46;99486.66;218875;1257;139228;-69
2023/07/04 17:34:28;;;;;;;25.60;18.80;;;;;;;25.19;34.51;99495.52;218344;1257;140605;-68
2023/07/04 17:39:34;;;;;;;29.60;17.30;;;;;;;25.05;34.59;99500.16;218324;1257;139555;-68
2023/07/04 17:44:37;;;;;;;22.70;17.40;;;;;;;24.90;34.77;99500.77;218691;1257;140302;-69
2023/07/04 17:49:42;;;;;;;20.90;16.90;;;;;;;24.75;35.12;99503.20;217688;1257;139243;-69
2023/07/04 17:54:48;;;;;;;23.90;19.00;;;;;;;24.60;35.17;99503.17;218793;1257;139252;-69
2023/07/04 17:59:59;;;;;;;23.90;19.00;;;;;;;24.44;35.34;99510.64;218424;1257;141607;-69
2023/07/04 18:05:07;;;;;;;22.90;19.20;;;;;;;24.30;35.33;99512.66;217810;1257;139961;-69
2023/07/04 18:10:13;;;;;;;28.10;22.20;;;;;;;24.17;36.06;99518.48;217598;1260;139562;-68
2023/07/04 18:15:18;;;;;;;24.50;18.50;;;;;;;24.02;36.12;99524.60;218891;1256;139341;-69
2023/07/04 18:20:23;;;;;;;27.50;18.90;;;;;;;23.85;36.20;99529.07;218483;1257;139354;-68
2023/07/04 18:25:29;;;;;;;25.40;19.80;;;;;;;23.68;37.08;99538.63;219393;1257;139582;-68
2023/07/04 18:30:38;;;;;;;25.50;18.20;;;;;;;23.46;37.97;99540.20;219521;1257;139786;-70
2023/07/04 18:35:45;;;;;;;19.90;17.10;;;;;;;23.21;38.93;99549.68;217767;1257;139768;-70
2023/07/04 18:40:52;;;;;;;23.30;17.90;;;;;;;22.92;39.66;99549.36;218851;1257;139666;-70
2023/07/04 18:46:00;;;;;;;20.60;17.40;;;;;;;22.63;40.30;99549.73;218344;1256;140420;-69
2023/07/04 18:51:12;;;;;;;26.10;16.40;;;;;;;22.35;41.05;99557.96;219594;1257;139589;-70
2023/07/04 18:56:18;;;;;;;21.70;16.40;;;;;;;22.05;41.85;99559.31;219663;1256;141216;-69
2023/07/04 19:01:27;;;;;;;22.70;16.40;;;;;;;21.73;42.85;99563.91;219242;1257;139756;-69
2023/07/04 19:06:37;;;;;;;21.90;14.80;;;;;;;21.46;43.86;99573.24;220606;1256;141009;-69
2023/07/04 19:11:46;;;;;;;20.50;15.70;;;;;;;21.19;44.43;99580.58;220123;1259;234523;-69
2023/07/04 19:16:58;;;;;;;23.10;18.30;;;;;;;20.92;45.23;99585.21;219280;1256;139722;-68
2023/07/04 19:22:08;;;;;;;22.90;16.20;;;;;;;20.68;46.21;99590.65;219718;1256;140382;-69
2023/07/04 19:27:16;;;;;;;23.30;16.00;;;;;;;20.42;46.77;99593.36;218695;1256;140269;-68
2023/07/04 19:32:24;;;;;;;23.50;15.10;;;;;;;20.12;47.67;99596.71;218632;1257;139211;-69
2023/07/04 19:37:31;;;;;;;24.60;16.90;;;;;;;19.77;48.42;99603.29;218902;1257;141605;-70
2023/07/04 19:42:38;;;;;;;19.80;16.00;;;;;;;19.39;48.94;99609.66;217844;1256;139793;-69
2023/07/04 19:47:44;;;;;;;28.70;17.60;;;;;;;19.00;49.23;99615.08;219009;1256;139556;-67
2023/07/04 19:52:49;;;;;;;33.50;18.50;;;;;;;18.72;49.99;99616.23;218685;1259;139886;-69
2023/07/04 19:57:55;;;;;;;28.50;16.20;;;;;;;18.58;50.66;99614.63;218923;1258;141724;-69
2023/07/04 20:03:00;;;;;;;29.10;16.20;;;;;;;18.33;50.60;99622.00;218125;1257;139727;-70
2023/07/04 20:08:06;;;;;;;34.10;17.80;;;;;;;18.03;51.06;99626.28;218000;1259;139764;-72
2023/07/04 20:13:10;;;;;;;48.60;17.90;;;;;;;17.79;51.96;99628.63;218283;1257;140456;-70
2023/07/04 20:18:17;;;;;;;25.60;15.80;;;;;;;17.56;52.32;99632.64;218591;1256;139405;-70
2023/07/04 20:23:29;;;;;;;36.30;18.50;;;;;;;17.30;52.73;99643.42;219631;1256;140419;-70
2023/07/04 20:28:38;;;;;;;30.10;15.60;;;;;;;17.04;53.23;99646.83;217966;1256;140312;-69
2023/07/04 20:33:48;;;;;;;33.80;18.00;;;;;;;16.88;53.60;99652.73;219475;1257;139265;-70
2023/07/04 20:38:58;;;;;;;35.70;17.40;;;;;;;16.71;54.05;99658.12;218263;1258;140010;-69
2023/07/04 20:44:03;;;;;;;24.60;15.60;;;;;;;16.69;55.01;99665.28;220176;1257;141038;-70
2023/07/04 20:49:08;;;;;;;24.00;14.20;;;;;;;16.66;55.21;99669.80;220206;1256;140156;-70
2023/07/04 20:54:14;;;;;;;25.20;16.10;;;;;;;16.57;55.45;99677.99;220145;1257;139687;-70
2023/07/04 20:59:23;;;;;;;22.90;14.50;;;;;;;16.49;56.00;99682.34;218892;1257;140342;-67
2023/07/04 21:04:32;;;;;;;26.90;16.90;;;;;;;16.42;56.57;99686.95;219330;1256;138898;-69
2023/07/04 21:09:40;;;;;;;24.50;16.30;;;;;;;16.34;57.02;99692.50;218714;1260;140473;-68
2023/07/04 21:14:50;;;;;;;29.40;17.20;;;;;;;16.30;57.77;99700.48;217986;1257;139358;-69
2023/07/04 21:19:56;;;;;;;25.20;14.90;;;;;;;16.29;58.47;99711.94;218867;1257;139616;-69
2023/07/04 21:25:00;;;;;;;25.00;15.80;;;;;;;16.30;59.36;99713.59;217752;1257;141164;-69
2023/07/04 21:30:07;;;;;;;22.40;15.70;;;;;;;16.31;59.81;99716.12;219167;1256;140184;-69
2023/07/04 21:35:16;;;;;;;24.70;17.20;;;;;;;16.36;60.06;99715.90;218138;1258;139282;-70
2023/07/04 21:40:22;;;;;;;30.40;16.40;;;;;;;16.41;59.93;99712.83;218568;1258;142113;-69
2023/07/04 21:45:27;;;;;;;22.60;15.30;;;;;;;16.40;59.67;99720.69;217493;1260;140833;-68
2023/07/04 21:50:33;;;;;;;25.00;15.80;;;;;;;16.25;59.69;99721.90;218540;1256;140098;-69
2023/07/04 21:55:40;;;;;;;20.90;15.10;;;;;;;16.04;59.63;99728.06;217639;1257;139436;-69
2023/07/04 22:00:46;;;;;;;;;;;;;;;15.88;60.14;99729.20;217833;1257;139375;-69
2023/07/04 22:05:51;;;;;;;32.20;15.80;;;;;;;15.64;60.24;99738.70;218869;1256;127416;-68
2023/07/04 22:10:59;;;;;;;25.80;16.40;;;;;;;15.46;60.86;99742.59;218358;1258;140488;-68
2023/07/04 22:16:07;;;;;;;26.00;15.50;;;;;;;15.37;61.43;99745.35;218267;1257;139436;-68
2023/07/04 22:21:13;;;;;;;20.10;14.40;;;;;;;15.35;62.04;99753.03;218228;1257;139692;-70
2023/07/04 22:26:19;;;;;;;22.10;15.60;;;;;;;15.34;62.54;99759.15;219672;1256;140894;-69
2023/07/04 22:31:25;;;;;;;23.20;14.80;;;;;;;15.38;62.89;99755.52;219219;1256;140893;-68
2023/07/04 22:36:32;;;;;;;21.30;13.20;;;;;;;15.35;62.71;99756.58;218450;1256;140582;-70
2023/07/04 22:41:54;;;;;;;19.70;13.70;;;;;;;15.17;62.55;99757.23;220031;1257;652971;-69
2023/07/04 22:46:59;;;;;;;23.50;14.70;;;;;;;15.02;63.02;99758.79;219390;1256;141472;-69
2023/07/04 22:52:05;;;;;;;20.00;14.60;;;;;;;14.95;63.39;99751.69;220328;1257;141520;-68
2023/07/04 22:57:10;;;;;;;25.90;16.60;;;;;;;14.85;63.67;99748.54;219817;1256;141657;-69
2023/07/04 23:02:16;;;;;;;27.30;15.70;;;;;;;14.74;63.85;99750.30;219441;1256;140725;-69
2023/07/04 23:07:21;;;;;;;22.40;16.00;;;;;;;14.63;64.17;99749.52;218457;1256;140832;-66
2023/07/04 23:12:25;;;;;;;22.40;15.90;;;;;;;14.52;64.42;99751.29;219507;1256;140797;-68
2023/07/04 23:17:31;;;;;;;26.10;15.60;;;;;;;14.40;64.77;99754.08;218637;1256;141068;-70
2023/07/04 23:22:36;;;;;;;22.40;14.70;;;;;;;14.31;65.14;99764.64;219200;1256;140933;-68